Time;durP1;ratioP1;P1;durP2;ratioP2;P2;SDS_P1;SDS_P2;PMS_P1;PMS_P2;Temp;Humidity;BMP_temperature;BMP_pressure;BME280_temperature;BME280_humidity;BME280_pressure;Samples;Min_cycle;Max_cycle;Signal;HPM_P1;HPM_P2
2022/12/16 00:01:23;;;;;;;48.17;16.62;;;;;;;-2.30;90.32;97771.31;1672751;85;28008;-63
2022/12/16 00:03:55;;;;;;;44.08;16.65;;;;;;;-2.30;90.35;97772.66;1672340;85;25636;-62
2022/12/16 00:06:26;;;;;;;48.08;21.00;;;;;;;-2.31;90.06;97762.97;1672469;84;25501;-63
2022/12/16 00:08:52;;;;;;;53.45;21.12;;;;;;;-2.31;90.38;97760.28;1672567;85;25729;-62
2022/12/16 00:11:19;;;;;;;36.05;15.03;;;;;;;-2.29;90.42;97763.02;1672285;85;25676;-72
2022/12/16 00:13:46;;;;;;;53.95;20.95;;;;;;;-2.32;90.19;97768.06;1672319;85;27516;-71
2022/12/16 00:16:15;;;;;;;48.33;19.62;;;;;;;-2.33;90.13;97776.63;1672508;85;25491;-72
2022/12/16 00:18:42;;;;;;;54.42;19.82;;;;;;;-2.36;90.04;97765.61;1672608;85;25738;-72
2022/12/16 00:21:09;;;;;;;38.38;15.98;;;;;;;-2.37;90.08;97764.79;1672325;85;25848;-68
2022/12/16 00:23:37;;;;;;;49.55;20.40;;;;;;;-2.37;90.32;97771.50;1672336;85;25696;-71
2022/12/16 00:26:05;;;;;;;51.20;18.12;;;;;;;-2.38;90.29;97764.52;1672433;85;25876;-61
2022/12/16 00:28:31;;;;;;;53.65;18.12;;;;;;;-2.41;90.04;97759.66;1672254;85;25779;-61
2022/12/16 00:30:58;;;;;;;40.38;15.08;;;;;;;-2.37;90.38;97759.42;1672401;85;25615;-61
2022/12/16 00:33:26;;;;;;;49.30;18.30;;;;;;;-2.38;90.26;97765.86;1672327;85;25815;-61
2022/12/16 00:35:53;;;;;;;48.23;18.50;;;;;;;-2.41;90.14;97750.26;1672332;85;25736;-62
2022/12/16 00:38:21;;;;;;;49.40;18.85;;;;;;;-2.42;90.19;97756.70;1672368;85;27292;-60
2022/12/16 00:40:48;;;;;;;37.95;15.53;;;;;;;-2.39;90.32;97765.56;1672572;85;25486;-61
2022/12/16 00:43:14;;;;;;;29.67;12.30;;;;;;;-2.43;90.00;97759.08;1672400;85;25683;-61
2022/12/16 00:45:41;;;;;;;38.85;14.43;;;;;;;-2.49;89.83;97758.22;1672427;85;25736;-61
2022/12/16 00:48:08;;;;;;;39.88;14.38;;;;;;;-2.49;90.38;97754.72;1672637;85;25612;-61
2022/12/16 00:50:35;;;;;;;40.88;15.98;;;;;;;-2.46;90.60;97746.98;1672729;85;27625;-61
2022/12/16 00:53:02;;;;;;;44.00;17.02;;;;;;;-2.44;90.50;97738.69;1672330;85;25676;-62
2022/12/16 00:55:28;;;;;;;32.95;11.85;;;;;;;-2.46;90.47;97746.17;1672901;85;25604;-61
2022/12/16 00:57:55;;;;;;;49.73;18.45;;;;;;;-2.49;90.37;97758.22;1672562;85;25785;-72
2022/12/16 01:00:22;;;;;;;46.23;17.37;;;;;;;-2.51;90.47;97740.20;1672470;85;25651;-72
2022/12/16 01:02:50;;;;;;;54.23;19.25;;;;;;;-2.49;90.78;97737.28;1672866;85;27398;-72
2022/12/16 01:05:19;;;;;;;44.63;17.32;;;;;;;-2.48;90.79;97732.21;1672347;85;25502;-72
2022/12/16 01:07:47;;;;;;;56.20;20.12;;;;;;;-2.48;90.68;97721.48;1676963;85;25615;-66
2022/12/16 01:10:14;;;;;;;39.35;16.12;;;;;;;-2.47;90.86;97725.77;1678275;85;25799;-70
2022/12/16 01:12:40;;;;;;;48.30;18.10;;;;;;;-2.50;90.95;97726.28;1678473;85;25628;-61
2022/12/16 01:15:09;;;;;;;44.75;17.23;;;;;;;-2.49;91.06;97719.31;1678264;85;27460;-61
2022/12/16 01:17:35;;;;;;;37.25;14.00;;;;;;;-2.48;91.07;97712.09;1678707;85;25663;-61
2022/12/16 01:20:03;;;;;;;41.60;16.70;;;;;;;-2.48;91.25;97706.72;1678435;85;25508;-61
2022/12/16 01:22:32;;;;;;;49.88;17.35;;;;;;;-2.48;91.22;97708.86;1678195;85;25749;-61
2022/12/16 01:24:59;;;;;;;47.58;17.52;;;;;;;-2.48;91.13;97712.88;1678681;85;25490;-61
2022/12/16 01:27:27;;;;;;;44.35;16.12;;;;;;;-2.47;91.46;97706.47;1678320;85;27458;-61
2022/12/16 01:29:54;;;;;;;47.70;18.37;;;;;;;-2.45;91.46;97696.28;1678443;85;25678;-61
2022/12/16 01:32:20;;;;;;;46.60;18.00;;;;;;;-2.46;91.47;97696.01;1678567;85;25441;-61
2022/12/16 01:34:51;;;;;;;41.92;15.50;;;;;;;-2.47;91.50;97685.53;1678258;85;25810;-61
2022/12/16 01:37:19;;;;;;;41.18;16.15;;;;;;;-2.49;91.50;97676.91;1678300;85;25608;-61
2022/12/16 01:39:46;;;;;;;48.80;18.62;;;;;;;-2.48;91.70;97667.82;1678603;85;26835;-61
2022/12/16 01:42:15;;;;;;;48.50;18.50;;;;;;;-2.48;91.73;97668.61;1678334;85;25680;-62
2022/12/16 01:44:44;;;;;;;38.13;13.95;;;;;;;-2.45;91.77;97668.11;1678776;85;25493;-61
2022/12/16 01:47:24;;;;;;;51.35;18.65;;;;;;;-2.44;91.77;97679.66;1678533;85;25772;-61
2022/12/16 01:49:56;;;;;;;49.45;17.95;;;;;;;-2.43;91.77;97672.70;1678239;85;25444;-61
2022/12/16 01:52:33;;;;;;;40.58;16.95;;;;;;;-2.43;91.75;97665.17;1678377;85;27965;-61
2022/12/16 01:55:10;;;;;;;39.73;15.00;;;;;;;-2.43;91.43;97669.20;1677976;85;25746;-61
2022/12/16 01:57:40;;;;;;;47.00;17.98;;;;;;;-2.45;91.48;97667.31;1678586;85;25462;-60
2022/12/16 02:00:09;;;;;;;48.00;18.07;;;;;;;-2.46;91.58;97662.47;1678223;85;25806;-62
2022/12/16 02:02:36;;;;;;;40.12;14.53;;;;;;;-2.47;91.53;97659.52;1678712;85;25666;-61
2022/12/16 02:05:19;;;;;;;48.55;18.67;;;;;;;-2.49;91.40;97652.77;1678199;85;27529;-61
2022/12/16 02:07:56;;;;;;;37.15;12.85;;;;;;;-2.48;91.69;97641.78;1674462;85;27256;-60
2022/12/16 02:10:28;;;;;;;35.52;14.83;;;;;;;-2.51;91.36;97650.33;1659457;85;25605;-60
2022/12/16 02:13:09;;;;;;;26.95;10.55;;;;;;;-2.48;91.44;97649.83;1672590;85;26346;-60
2022/12/16 02:15:40;;;;;;;48.05;16.42;;;;;;;-2.51;91.33;97642.28;1672610;85;25523;-60
2022/12/16 02:18:30;;;;;;;48.45;18.73;;;;;;;-2.52;91.42;97636.65;1672638;85;27391;-61
2022/12/16 02:21:12;;;;;;;45.23;17.82;;;;;;;-2.54;91.32;97632.88;1644229;87;25768;-61
2022/12/16 02:24:03;;;;;;;32.45;12.43;;;;;;;-2.54;91.45;97628.86;1644794;87;25740;-61
2022/12/16 02:26:57;;;;;;;24.10;10.38;;;;;;;-2.56;91.39;97620.23;1645099;87;25852;-61
2022/12/16 02:29:54;;;;;;;33.13;14.23;;;;;;;-2.60;91.40;97611.61;1644426;87;25820;-61
2022/12/16 02:32:32;;;;;;;49.18;18.73;;;;;;;-2.67;91.51;97603.27;1644016;87;26675;-61
2022/12/16 02:35:26;;;;;;;51.58;20.30;;;;;;;-2.70;91.78;97603.77;1644217;87;25691;-61
2022/12/16 02:38:26;;;;;;;42.48;16.97;;;;;;;-2.69;91.84;97605.89;1644609;87;25546;-61
2022/12/16 02:41:06;;;;;;;32.10;13.78;;;;;;;-2.69;92.01;97595.98;1644640;87;26089;-61
2022/12/16 02:43:44;;;;;;;40.10;16.00;;;;;;;-2.69;92.02;97589.28;1644635;87;25791;-61
2022/12/16 02:46:11;;;;;;;27.45;11.03;;;;;;;-2.63;92.18;97594.68;1644109;87;27434;-58
2022/12/16 02:48:37;;;;;;;47.95;18.45;;;;;;;-2.62;92.28;97593.09;1644568;87;25756;-58
2022/12/16 02:51:04;;;;;;;37.80;14.25;;;;;;;-2.63;91.97;97592.81;1644576;87;25757;-58
2022/12/16 02:53:34;;;;;;;44.80;17.65;;;;;;;-2.67;91.85;97580.47;1644552;87;25772;-59
2022/12/16 02:56:09;;;;;;;40.55;15.38;;;;;;;-2.69;91.78;97573.19;1644751;87;25502;-58
2022/12/16 02:59:10;;;;;;;24.32;10.45;;;;;;;-2.70;92.14;97573.45;1664394;85;27509;-59
2022/12/16 03:02:04;;;;;;;36.90;13.93;;;;;;;-2.71;92.01;97566.47;1671730;85;25521;-59
2022/12/16 03:04:42;;;;;;;25.77;9.93;;;;;;;-2.74;92.04;97552.23;1672434;85;25465;-61
2022/12/16 03:07:12;;;;;;;37.05;15.00;;;;;;;-2.76;91.95;97553.83;1671345;85;25681;-59
2022/12/16 03:09:41;;;;;;;37.63;14.95;;;;;;;-2.77;91.99;97558.89;1672917;85;25478;-60
2022/12/16 03:12:11;;;;;;;27.42;10.43;;;;;;;-2.76;92.15;97545.78;1672358;85;27371;-61
2022/12/16 03:14:42;;;;;;;25.72;11.05;;;;;;;-2.78;92.09;97546.03;1672800;85;25765;-59
2022/12/16 03:17:09;;;;;;;;;;;;;;;-2.79;92.05;97540.92;1674904;85;25659;-58
2022/12/16 03:19:38;;;;;;;20.82;8.73;;;;;;;-2.77;92.08;97536.09;1672441;85;27932;-59
2022/12/16 03:22:15;;;;;;;39.10;15.53;;;;;;;-2.81;91.96;97537.16;1672389;85;25423;-58
2022/12/16 03:24:42;;;;;;;28.47;12.15;;;;;;;-2.83;92.03;97529.88;1672301;85;27434;-58
2022/12/16 03:27:17;;;;;;;54.75;21.20;;;;;;;-2.81;92.01;97528.28;1672535;85;25969;-58
2022/12/16 03:30:05;;;;;;;37.78;15.13;;;;;;;-2.80;92.02;97525.35;1672147;85;25596;-58
2022/12/16 03:32:39;;;;;;;46.63;18.50;;;;;;;-2.78;91.82;97525.92;1644700;86;25855;-59
2022/12/16 03:35:22;;;;;;;44.20;17.77;;;;;;;-2.72;91.46;97533.99;1644905;87;25731;-59
2022/12/16 03:37:52;;;;;;;50.50;19.50;;;;;;;-2.72;91.23;97521.40;1644581;87;28608;-58
2022/12/16 03:40:20;;;;;;;27.00;12.57;;;;;;;-2.68;91.15;97522.50;1645055;87;25566;-58
2022/12/16 03:42:48;;;;;;;40.08;16.15;;;;;;;-2.69;90.98;97517.39;1644836;87;25834;-58
2022/12/16 03:45:18;;;;;;;48.60;18.05;;;;;;;-2.70;90.94;97505.05;1644770;87;25799;-58
2022/12/16 03:47:52;;;;;;;46.95;19.37;;;;;;;-2.69;91.08;97512.84;1644647;87;25543;-59
2022/12/16 03:50:24;;;;;;;22.85;9.38;;;;;;;-2.63;91.00;97517.72;1644545;87;27388;-58
2022/12/16 03:52:50;;;;;;;53.20;20.85;;;;;;;-2.62;90.91;97515.30;1644734;87;25783;-59
2022/12/16 03:55:16;;;;;;;42.30;17.62;;;;;;;-2.62;90.86;97511.28;1644442;87;25790;-58
2022/12/16 03:57:43;;;;;;;48.80;18.77;;;;;;;-2.58;90.85;97530.36;1644721;87;25815;-59
2022/12/16 04:00:11;;;;;;;45.15;17.75;;;;;;;-2.56;90.92;97526.91;1644695;87;25463;-58
2022/12/16 04:02:37;;;;;;;38.65;15.85;;;;;;;-2.53;90.80;97519.13;1644766;87;27533;-58
2022/12/16 04:05:05;;;;;;;45.17;16.40;;;;;;;-2.58;90.65;97519.62;1644386;87;25938;-58
2022/12/16 04:07:31;;;;;;;47.73;18.60;;;;;;;-2.59;90.88;97534.12;1644483;87;25802;-58
2022/12/16 04:09:57;;;;;;;28.60;12.95;;;;;;;-2.60;90.95;97527.94;1669638;85;25823;-58
2022/12/16 04:26:18;;;;;;;43.83;16.30;;;;;;;-2.48;90.83;97526.41;1681505;85;25666;-59
2022/12/16 04:28:45;;;;;;;39.30;16.67;;;;;;;-2.46;90.59;97526.16;1681757;85;28182;-58
2022/12/16 04:31:11;;;;;;;45.05;19.20;;;;;;;-2.47;90.59;97525.89;1681286;85;25766;-58
